Time;durP1;ratioP1;P1;durP2;ratioP2;P2;SDS_P1;SDS_P2;PMS_P1;PMS_P2;Temp;Humidity;BMP_temperature;BMP_pressure;BME280_temperature;BME280_humidity;BME280_pressure;Samples;Min_cycle;Max_cycle;Signal;HPM_P1;HPM_P2
2023/07/22 00:01:58;;;;;;;18.98;9.88;;;;;;;15.28;88.67;101283.28;4946969;29;20034;-92
2023/07/22 00:04:23;;;;;;;12.23;8.43;;;;;;;15.27;87.93;101280.81;4935236;29;20035;-92
2023/07/22 00:06:49;;;;;;;14.77;9.30;;;;;;;15.18;89.63;101274.41;4955575;29;20050;-93
2023/07/22 00:09:14;;;;;;;17.43;9.87;;;;;;;15.21;89.14;101282.75;4937855;29;20043;-93
2023/07/22 00:11:40;;;;;;;15.97;10.20;;;;;;;15.12;89.33;101276.34;4933819;29;20031;-93
2023/07/22 00:14:06;;;;;;;17.48;10.65;;;;;;;15.12;89.90;101287.13;4935075;29;20141;-93
2023/07/22 00:16:31;;;;;;;14.40;9.98;;;;;;;15.04;89.77;101268.81;4934030;29;20434;-93
2023/07/22 00:18:57;;;;;;;17.33;9.87;;;;;;;14.97;89.91;101269.91;4934736;29;20028;-93
2023/07/22 00:21:22;;;;;;;16.83;10.00;;;;;;;14.94;90.39;101266.97;4934410;29;20024;-92
2023/07/22 00:23:48;;;;;;;15.37;10.10;;;;;;;14.99;91.01;101275.03;4935083;29;20703;-93
2023/07/22 00:26:13;;;;;;;17.23;10.40;;;;;;;14.95;91.31;101269.41;4934016;29;20087;-92
2023/07/22 00:28:39;;;;;;;19.63;10.13;;;;;;;14.98;91.16;101289.63;4933837;28;20279;-93
2023/07/22 00:31:04;;;;;;;15.90;9.40;;;;;;;14.94;91.05;101266.97;4934268;29;20079;-93
2023/07/22 00:33:30;;;;;;;16.23;9.70;;;;;;;14.95;90.97;101282.88;4934741;29;20126;-93
2023/07/22 00:35:56;;;;;;;14.68;9.38;;;;;;;14.86;91.44;101268.34;4933841;29;20676;-92
2023/07/22 00:38:21;;;;;;;14.03;9.07;;;;;;;14.80;92.25;101277.53;4934665;29;20036;-93
2023/07/22 00:40:47;;;;;;;15.70;9.23;;;;;;;14.78;92.26;101261.63;4932245;29;20945;-93
2023/07/22 00:43:12;;;;;;;17.13;9.20;;;;;;;14.83;91.84;101275.09;4933331;29;20043;-92
2023/07/22 00:45:38;;;;;;;14.63;9.53;;;;;;;14.83;92.16;101275.09;4934457;29;20038;-93
2023/07/22 00:48:05;;;;;;;14.75;9.23;;;;;;;14.84;92.26;101255.13;4933642;29;20040;-92
2023/07/22 00:50:32;;;;;;;12.77;9.13;;;;;;;14.81;91.99;101250.28;4936393;29;20036;-93
2023/07/22 00:52:58;;;;;;;14.13;9.05;;;;;;;14.93;92.61;101271.56;4938434;29;20435;-93
2023/07/22 00:55:23;;;;;;;14.27;9.40;;;;;;;14.89;92.52;101266.97;4938655;29;20032;-92
2023/07/22 00:57:48;;;;;;;16.90;9.20;;;;;;;14.89;92.95;101273.19;4938568;29;20488;-92
2023/07/22 01:00:16;;;;;;;15.20;9.10;;;;;;;14.77;93.45;101251.91;4938550;29;20119;-92
2023/07/22 01:02:42;;;;;;;16.17;9.57;;;;;;;14.82;93.75;101272.66;4938696;29;20020;-91
2023/07/22 01:05:10;;;;;;;18.00;9.75;;;;;;;14.75;93.70;101256.78;4947325;29;20039;-91
2023/07/22 01:07:36;;;;;;;14.32;9.55;;;;;;;14.75;94.19;101259.47;4950739;29;20035;-93
2023/07/22 01:10:01;;;;;;;15.82;8.95;;;;;;;14.81;94.28;101268.34;4949754;29;20088;-93
2023/07/22 01:12:26;;;;;;;19.17;9.37;;;;;;;14.75;94.27;101259.47;4945968;29;20072;-92
2023/07/22 01:14:52;;;;;;;15.43;9.23;;;;;;;14.70;94.34;101256.78;4939925;29;20019;-92
2023/07/22 01:17:18;;;;;;;15.00;8.63;;;;;;;14.67;94.81;101252.72;4947997;29;20051;-92
2023/07/22 01:19:44;;;;;;;14.48;9.48;;;;;;;14.72;95.33;101262.72;4956335;29;20016;-92
2023/07/22 01:22:12;;;;;;;15.80;9.70;;;;;;;14.68;95.79;101250.88;4952428;29;20035;-93
2023/07/22 01:24:38;;;;;;;15.70;9.30;;;;;;;14.54;96.23;101231.75;4947559;29;20020;-92
2023/07/22 01:27:08;;;;;;;16.13;9.45;;;;;;;14.66;96.15;101259.19;4959236;29;20419;-92
2023/07/22 01:29:33;;;;;;;17.77;9.13;;;;;;;14.60;96.77;101246.00;4945283;29;20035;-92
2023/07/22 01:31:59;;;;;;;16.83;10.33;;;;;;;14.54;97.87;101239.84;4939237;29;20299;-92
2023/07/22 01:34:24;;;;;;;15.70;9.70;;;;;;;14.55;96.80;101236.06;4938140;29;20447;-93
2023/07/22 01:36:50;;;;;;;17.85;9.45;;;;;;;14.62;96.85;101241.94;4939232;29;20032;-93
2023/07/22 01:39:16;;;;;;;14.23;9.10;;;;;;;14.65;97.02;101246.81;4939285;29;20036;-93
2023/07/22 01:41:46;;;;;;;15.57;9.32;;;;;;;14.73;97.63;101253.53;4939979;29;20484;-93
2023/07/22 01:44:11;;;;;;;15.48;10.05;;;;;;;14.68;97.09;101243.59;4940439;29;20068;-92
2023/07/22 01:46:37;;;;;;;15.33;9.80;;;;;;;14.68;97.63;101246.28;4940329;29;20460;-92
2023/07/22 01:49:09;;;;;;;17.92;9.90;;;;;;;14.68;97.12;101246.28;4938043;29;20123;-93
2023/07/22 01:51:37;;;;;;;16.87;9.70;;;;;;;14.56;98.63;101221.50;4939374;29;20031;-92
2023/07/22 01:54:02;;;;;;;19.50;10.47;;;;;;;14.64;97.66;101237.09;4940259;29;20326;-92
2023/07/22 01:56:28;;;;;;;17.33;10.10;;;;;;;14.58;98.11;101223.91;4939429;29;20035;-92
2023/07/22 01:58:53;;;;;;;17.87;9.97;;;;;;;14.59;97.88;101223.66;4938027;28;20027;-93
2023/07/22 02:01:19;;;;;;;21.30;9.70;;;;;;;14.63;96.96;101235.47;4939233;29;20023;-92
2023/07/22 02:03:45;;;;;;;18.08;10.35;;;;;;;14.56;97.58;101231.47;4937795;29;20028;-92
2023/07/22 02:06:10;;;;;;;16.60;10.03;;;;;;;14.50;97.18;101228.81;4938523;29;20030;-92
2023/07/22 02:08:36;;;;;;;17.43;9.90;;;;;;;14.51;97.23;101226.91;4938983;29;20276;-93
2023/07/22 02:11:04;;;;;;;17.13;9.80;;;;;;;14.47;97.60;101231.22;4937392;29;20042;-92
2023/07/22 02:13:33;;;;;;;14.60;9.40;;;;;;;14.56;97.83;101236.84;4938072;29;20027;-92
2023/07/22 02:16:00;;;;;;;15.40;9.70;;;;;;;14.45;97.84;101223.41;4938669;29;20024;-92
2023/07/22 02:18:25;;;;;;;18.77;9.88;;;;;;;14.52;97.58;101233.91;4938705;29;20028;-93
2023/07/22 02:20:51;;;;;;;14.88;9.73;;;;;;;14.50;97.91;101218.00;4939390;29;20092;-92
2023/07/22 02:23:16;;;;;;;18.93;10.77;;;;;;;14.42;98.76;101218.56;4938724;29;20086;-92
2023/07/22 02:25:42;;;;;;;14.47;9.70;;;;;;;14.43;98.54;101222.06;4938958;29;20108;-91
2023/07/22 02:28:07;;;;;;;18.73;10.10;;;;;;;14.35;98.95;101210.78;4946937;29;20062;-92
2023/07/22 02:30:36;;;;;;;19.93;9.87;;;;;;;14.32;98.75;101219.41;4954923;29;20574;-92
2023/07/22 02:33:02;;;;;;;17.60;10.57;;;;;;;14.42;99.60;101229.34;4954746;29;20031;-92
2023/07/22 02:35:28;;;;;;;18.00;10.57;;;;;;;14.37;99.41;101219.41;4954221;29;20032;-91
2023/07/22 02:37:53;;;;;;;15.27;9.83;;;;;;;14.35;99.45;101221.56;4950985;29;20071;-92
2023/07/22 02:40:19;;;;;;;16.47;9.33;;;;;;;14.36;100.00;101216.94;4959683;29;20016;-91
2023/07/22 02:42:44;;;;;;;15.40;9.50;;;;;;;14.31;100.00;101215.09;4949482;29;20114;-91
2023/07/22 02:45:10;;;;;;;13.97;9.43;;;;;;;14.32;100.00;101221.31;4942912;29;20024;-92
2023/07/22 02:47:35;;;;;;;16.85;10.07;;;;;;;14.29;100.00;101227.22;4958909;29;20036;-93
2023/07/22 02:50:01;;;;;;;17.00;10.20;;;;;;;14.22;100.00;101224.81;4940878;29;20036;-93
2023/07/22 02:52:26;;;;;;;15.83;9.23;;;;;;;14.10;100.00;101214.34;4937635;29;20028;-92
2023/07/22 02:55:07;;;;;;;19.50;9.98;;;;;;;14.01;100.00;101227.53;4937977;29;20024;-92
2023/07/22 02:57:33;;;;;;;15.27;9.60;;;;;;;13.84;100.00;101210.84;4937471;29;20428;-92
2023/07/22 02:59:58;;;;;;;15.57;9.57;;;;;;;13.75;100.00;101222.16;4937325;29;20323;-92
2023/07/22 03:02:24;;;;;;;14.53;9.20;;;;;;;13.66;100.00;101221.09;4936866;29;20027;-92
2023/07/22 03:04:49;;;;;;;17.40;9.73;;;;;;;13.54;100.00;101221.34;4937261;29;20031;-92
2023/07/22 03:07:15;;;;;;;15.10;9.50;;;;;;;13.38;100.00;101207.03;4936261;29;20026;-92
2023/07/22 03:09:41;;;;;;;18.55;9.90;;;;;;;13.39;100.00;101216.72;4938201;29;20024;-92
2023/07/22 03:12:07;;;;;;;15.43;9.30;;;;;;;13.27;100.00;101213.47;4937440;29;20020;-92
2023/07/22 03:14:54;;;;;;;16.63;9.83;;;;;;;13.21;100.00;101222.59;4938018;29;20330;-92
2023/07/22 03:17:19;;;;;;;17.10;9.98;;;;;;;13.14;100.00;101218.31;4939780;29;20064;-92
2023/07/22 03:19:45;;;;;;;16.07;9.30;;;;;;;13.09;100.00;101234.44;4938904;29;20480;-93
2023/07/22 03:22:14;;;;;;;15.52;9.18;;;;;;;12.93;100.00;101208.56;4950533;29;20028;-92
2023/07/22 03:24:39;;;;;;;16.10;9.55;;;;;;;13.02;100.00;101232.00;4959599;29;20012;-92
2023/07/22 03:27:06;;;;;;;15.50;8.80;;;;;;;12.96;100.00;101234.94;4959140;29;20248;-92
2023/07/22 03:29:31;;;;;;;18.92;9.70;;;;;;;12.88;100.00;101238.91;4959868;29;20118;-91
2023/07/22 03:31:57;;;;;;;16.90;9.23;;;;;;;12.78;100.00;101218.16;4959402;29;20039;-92
2023/07/22 03:34:23;;;;;;;17.43;9.47;;;;;;;12.75;100.00;101229.47;4959761;29;20375;-92
2023/07/22 03:36:48;;;;;;;16.67;9.60;;;;;;;12.78;100.00;101239.69;4952232;29;20082;-92
2023/07/22 03:39:17;;;;;;;14.13;8.60;;;;;;;12.75;100.00;101229.47;4937584;29;20283;-92
2023/07/22 03:41:42;;;;;;;16.83;8.65;;;;;;;12.69;100.00;101242.06;4935532;29;20112;-92
2023/07/22 03:44:08;;;;;;;16.53;8.90;;;;;;;12.71;100.00;101239.91;4936282;29;20119;-92
2023/07/22 03:46:33;;;;;;;18.23;9.77;;;;;;;12.72;100.00;101246.13;4935406;29;20063;-92
2023/07/22 03:48:58;;;;;;;18.17;9.20;;;;;;;12.66;100.00;101234.53;4936530;29;20083;-92
2023/07/22 03:51:23;;;;;;;16.77;9.17;;;;;;;12.67;100.00;101241.53;4936569;29;20229;-92
2023/07/22 03:53:50;;;;;;;16.07;8.97;;;;;;;12.73;100.00;101245.84;4936579;29;20078;-92
2023/07/22 03:56:15;;;;;;;17.50;9.20;;;;;;;12.75;100.00;101239.41;4936672;29;20034;-92
2023/07/22 03:58:40;;;;;;;17.83;9.70;;;;;;;12.75;100.00;101232.16;4937574;29;20490;-93
2023/07/22 04:01:06;;;;;;;16.93;9.43;;;;;;;12.81;100.00;101233.78;4952767;29;20011;-93
2023/07/22 04:03:31;;;;;;;18.70;9.43;;;;;;;12.82;100.00;101237.28;4945705;29;20063;-92
2023/07/22 04:05:57;;;;;;;20.23;9.63;;;;;;;12.75;100.00;101221.41;4955647;29;20315;-92
2023/07/22 04:08:22;;;;;;;17.30;8.87;;;;;;;12.86;100.00;101233.81;4959658;29;20012;-92
2023/07/22 04:10:52;;;;;;;21.00;9.85;;;;;;;12.87;100.00;101232.75;4959507;29;20478;-92
2023/07/22 04:13:18;;;;;;;18.73;9.35;;;;;;;12.77;100.00;101221.13;4959226;29;20096;-92
2023/07/22 04:15:43;;;;;;;17.03;9.13;;;;;;;12.86;100.00;101231.13;4958731;29;20043;-93
2023/07/22 04:18:08;;;;;;;18.00;8.57;;;;;;;12.87;100.00;101242.69;4959236;29;20066;-92
2023/07/22 04:20:34;;;;;;;14.13;8.47;;;;;;;12.80;100.00;101220.59;4947740;29;20403;-93
2023/07/22 04:22:59;;;;;;;16.80;9.00;;;;;;;12.83;100.00;101226.25;4937434;29;20036;-92
2023/07/22 04:25:24;;;;;;;18.52;9.25;;;;;;;12.76;100.00;101223.03;4935662;29;20024;-91
2023/07/22 04:27:50;;;;;;;17.07;9.33;;;;;;;12.91;100.00;101232.22;4935470;29;20452;-92
2023/07/22 04:30:20;;;;;;;18.67;9.40;;;;;;;12.98;100.00;101238.13;4935721;29;20365;-92
2023/07/22 04:32:50;;;;;;;16.25;9.82;;;;;;;12.99;100.00;101234.38;4936843;29;20028;-91
2023/07/22 04:35:17;;;;;;;15.18;9.13;;;;;;;13.01;100.00;101234.94;4936511;29;20032;-92
2023/07/22 04:37:44;;;;;;;15.10;8.45;;;;;;;12.97;100.00;101228.44;4938879;29;20039;-92
2023/07/22 04:40:13;;;;;;;18.97;8.60;;;;;;;13.12;100.00;101255.44;4937030;29;20400;-92
2023/07/22 04:42:39;;;;;;;16.73;9.73;;;;;;;13.07;100.00;101233.88;4937126;29;20866;-92
2023/07/22 04:45:06;;;;;;;17.55;8.93;;;;;;;13.23;100.00;101242.00;4937791;29;20031;-92
2023/07/22 04:47:31;;;;;;;19.02;9.40;;;;;;;13.32;100.00;101240.41;4937061;29;20197;-92
2023/07/22 04:49:57;;;;;;;17.53;9.80;;;;;;;13.47;100.00;101243.16;4936783;29;20077;-93
2023/07/22 04:52:22;;;;;;;16.48;8.93;;;;;;;13.67;100.00;101243.44;4936398;29;20114;-93
2023/07/22 04:54:47;;;;;;;18.73;8.90;;;;;;;13.85;100.00;101247.50;4936881;29;20114;-92
2023/07/22 04:57:13;;;;;;;17.90;8.57;;;;;;;14.07;100.00;101253.38;4937789;29;20054;-93
2023/07/22 04:59:38;;;;;;;21.80;9.10;;;;;;;14.20;100.00;101233.16;4938639;29;20110;-92
2023/07/22 05:02:04;;;;;;;16.60;9.00;;;;;;;14.68;100.00;101250.88;4939990;29;20031;-93
2023/07/22 05:04:29;;;;;;;18.73;9.23;;;;;;;15.03;100.00;101253.69;4938721;29;20024;-92
2023/07/22 05:06:55;;;;;;;16.07;8.20;;;;;;;15.27;100.00;101251.97;4947189;29;20115;-93
2023/07/22 05:09:20;;;;;;;19.25;8.73;;;;;;;15.33;100.00;101257.34;4945421;29;20024;-92
2023/07/22 05:11:45;;;;;;;15.40;8.40;;;;;;;15.22;100.00;101257.38;4936482;29;20028;-92
2023/07/22 05:14:11;;;;;;;16.60;9.47;;;;;;;15.04;100.00;101258.00;4936709;29;20036;-94
2023/07/22 05:16:36;;;;;;;17.13;8.83;;;;;;;15.03;100.00;101257.22;4936136;29;20504;-94
2023/07/22 05:19:02;;;;;;;16.38;8.48;;;;;;;15.04;100.00;101253.44;4935875;29;20031;-95
2023/07/22 05:21:27;;;;;;;19.23;9.03;;;;;;;15.19;100.00;101265.22;4943441;29;20035;-93
2023/07/22 05:23:52;;;;;;;13.37;8.47;;;;;;;15.28;100.00;101269.75;4948923;29;20039;-94
2023/07/22 05:26:17;;;;;;;15.07;8.97;;;;;;;15.28;100.00;101263.53;4935805;29;20039;-94
2023/07/22 05:28:43;;;;;;;16.17;8.77;;;;;;;15.38;100.00;101251.88;4952868;29;20028;-94
2023/07/22 05:31:08;;;;;;;17.98;8.90;;;;;;;15.70;98.07;101264.09;4938304;29;20035;-94
2023/07/22 05:33:34;;;;;;;16.77;8.80;;;;;;;15.50;97.66;101238.84;4935515;29;20028;-95
2023/07/22 05:35:59;;;;;;;17.60;8.53;;;;;;;15.54;98.17;101245.28;4937497;29;20043;-94
2023/07/22 05:38:24;;;;;;;18.33;9.73;;;;;;;15.57;98.95;101260.94;4940219;29;20107;-93
2023/07/22 05:40:52;;;;;;;16.45;9.60;;;;;;;15.80;97.41;101247.81;4938929;29;20036;-94
2023/07/22 05:43:17;;;;;;;15.27;9.17;;;;;;;16.66;93.63;101254.56;4939452;29;20023;-94
2023/07/22 05:45:43;;;;;;;14.43;8.50;;;;;;;17.40;89.59;101245.22;4938936;29;20299;-93
2023/07/22 05:48:08;;;;;;;13.33;8.17;;;;;;;18.31;85.79;101254.84;4939097;28;20119;-94
2023/07/22 05:50:34;;;;;;;15.20;8.80;;;;;;;18.66;80.73;101248.22;4940292;29;20222;-95
2023/07/22 05:52:59;;;;;;;14.80;8.18;;;;;;;18.62;80.18;101251.53;4941400;29;20024;-94
2023/07/22 05:55:24;;;;;;;17.60;9.03;;;;;;;18.19;81.48;101251.81;4938475;29;20544;-93
2023/07/22 05:57:50;;;;;;;17.03;8.40;;;;;;;17.64;83.92;101245.13;4938256;29;20435;-94
2023/07/22 06:00:15;;;;;;;15.63;9.03;;;;;;;17.34;86.77;101249.94;4939543;29;20032;-94
2023/07/22 06:02:41;;;;;;;16.05;8.98;;;;;;;17.09;88.63;101234.81;4937396;28;20032;-94
2023/07/22 06:05:07;;;;;;;13.70;8.70;;;;;;;17.49;87.89;101261.63;4939631;29;20086;-93
2023/07/22 06:07:33;;;;;;;13.37;8.73;;;;;;;17.76;86.52;101265.53;4938665;29;20031;-94
2023/07/22 06:09:58;;;;;;;17.50;9.65;;;;;;;17.96;85.97;101257.06;4939158;29;20027;-94
2023/07/22 06:12:23;;;;;;;14.33;8.70;;;;;;;18.13;84.27;101250.31;4938010;29;20673;-93
2023/07/22 06:14:49;;;;;;;19.03;9.10;;;;;;;18.23;84.58;101252.84;4939272;29;20404;-95
2023/07/22 06:17:15;;;;;;;16.98;8.80;;;;;;;18.39;82.57;101250.63;4937980;29;20035;-94
2023/07/22 06:19:40;;;;;;;13.17;8.80;;;;;;;18.42;82.54;101257.38;4938894;29;20024;-94
2023/07/22 06:22:06;;;;;;;15.65;9.52;;;;;;;18.62;82.62;101254.25;4939384;29;20528;-95
2023/07/22 06:24:31;;;;;;;19.73;9.60;;;;;;;18.89;80.88;101258.06;4942175;29;20034;-95
2023/07/22 06:26:56;;;;;;;17.13;9.20;;;;;;;18.92;80.93;101248.50;4939907;29;20024;-95
2023/07/22 06:29:21;;;;;;;17.77;9.87;;;;;;;18.71;81.06;101256.25;4940211;29;20034;-95
2023/07/22 06:31:47;;;;;;;17.57;9.33;;;;;;;18.45;81.99;101248.63;4940446;29;20024;-94
2023/07/22 06:34:13;;;;;;;15.18;9.13;;;;;;;18.43;83.41;101250.84;4943280;29;20031;-94
2023/07/22 06:36:38;;;;;;;16.47;9.00;;;;;;;18.24;84.20;101242.78;4942632;29;20408;-94
2023/07/22 06:39:05;;;;;;;20.17;9.80;;;;;;;18.12;85.22;101246.81;4941633;29;20068;-95
2023/07/22 06:41:30;;;;;;;17.23;9.82;;;;;;;18.05;85.44;101240.16;4944036;29;20091;-94
2023/07/22 06:43:56;;;;;;;19.23;9.67;;;;;;;18.04;86.12;101238.53;4957403;29;20112;-94
2023/07/22 06:46:21;;;;;;;18.03;9.53;;;;;;;18.09;87.36;101231.13;4938539;29;20050;-94
2023/07/22 06:48:47;;;;;;;18.07;9.83;;;;;;;18.08;86.67;101225.97;4948391;29;20321;-95
2023/07/22 06:51:14;;;;;;;18.70;9.90;;;;;;;18.05;87.69;101235.53;4947558;29;20031;-94
2023/07/22 06:53:40;;;;;;;20.97;9.60;;;;;;;18.06;88.16;101230.91;4943616;29;20027;-94
2023/07/22 06:56:06;;;;;;;18.83;8.77;;;;;;;18.15;88.79;101226.41;4943502;29;20275;-95
2023/07/22 06:58:31;;;;;;;17.80;9.40;;;;;;;18.36;88.14;101239.59;4941845;29;20034;-95
2023/07/22 07:00:58;;;;;;;15.97;9.67;;;;;;;18.47;87.16;101224.72;4939878;29;20035;-94
2023/07/22 07:03:23;;;;;;;17.13;9.55;;;;;;;18.70;86.78;101233.75;4941253;29;20096;-93
2023/07/22 07:05:56;;;;;;;17.43;10.20;;;;;;;18.97;85.48;101236.78;4937925;29;20044;-93
2023/07/22 07:08:21;;;;;;;18.13;10.00;;;;;;;19.37;82.80;101223.34;4937547;29;20648;-96
2023/07/22 07:18:33;;;;;;;16.17;9.02;;;;;;;20.80;75.29;101238.19;4944481;23;20048;-93
2023/07/22 07:20:59;;;;;;;17.80;9.50;;;;;;;20.55;74.57;101233.13;4937928;29;20034;-94
2023/07/22 07:23:26;;;;;;;16.97;10.17;;;;;;;20.20;75.74;101222.09;4937593;29;20036;-95
2023/07/22 07:25:51;;;;;;;20.60;9.80;;;;;;;20.07;76.71;101232.00;4937165;29;20035;-95
2023/07/22 07:28:18;;;;;;;17.77;9.45;;;;;;;19.91;78.15;101228.03;4936015;28;20032;-94
2023/07/22 07:30:43;;;;;;;15.80;9.23;;;;;;;19.75;79.15;101222.97;4935332;29;20133;-94
2023/07/22 07:33:09;;;;;;;17.98;9.00;;;;;;;19.68;79.16;101234.28;4936773;29;20032;-93
2023/07/22 07:35:34;;;;;;;17.70;8.97;;;;;;;19.66;79.85;101227.56;4937468;29;20035;-94
2023/07/22 07:37:59;;;;;;;18.00;8.63;;;;;;;19.78;79.45;101230.50;4939068;29;20083;-94
2023/07/22 07:40:26;;;;;;;18.40;8.80;;;;;;;19.84;79.99;101242.06;4939347;29;20028;-94
2023/07/22 07:42:51;;;;;;;14.13;8.85;;;;;;;19.88;79.89;101232.19;4942718;29;20028;-92
2023/07/22 07:45:17;;;;;;;14.53;8.17;;;;;;;20.01;79.33;101222.34;4955082;29;20028;-95
2023/07/22 07:47:43;;;;;;;17.40;8.35;;;;;;;20.21;78.62;101231.09;4944977;28;20082;-94
2023/07/22 07:50:09;;;;;;;18.33;9.10;;;;;;;20.29;78.81;101230.31;4938954;29;20032;-93
2023/07/22 07:52:34;;;;;;;15.48;8.50;;;;;;;20.35;77.88;101233.72;4938963;29;20023;-95
2023/07/22 07:54:59;;;;;;;18.57;8.90;;;;;;;20.48;77.49;101237.41;4938241;29;20035;-95
2023/07/22 07:57:25;;;;;;;20.50;8.50;;;;;;;20.70;77.35;101239.25;4940124;29;20035;-95
2023/07/22 07:59:50;;;;;;;15.27;8.15;;;;;;;20.90;76.64;101213.38;4937395;29;20088;-95
2023/07/22 08:02:16;;;;;;;20.57;8.97;;;;;;;21.33;74.16;101242.56;4941113;29;20028;-95
2023/07/22 08:04:41;;;;;;;14.93;8.40;;;;;;;21.61;72.22;101244.16;4955510;29;20103;-95
2023/07/22 08:07:07;;;;;;;14.90;8.30;;;;;;;21.40;71.85;101241.25;4937512;29;20484;-94
2023/07/22 08:09:32;;;;;;;17.40;8.53;;;;;;;21.22;72.59;101230.34;4947484;29;20023;-95
2023/07/22 08:11:57;;;;;;;15.03;8.23;;;;;;;21.45;72.23;101249.28;4949909;29;20103;-95
2023/07/22 08:14:23;;;;;;;12.50;7.63;;;;;;;21.74;71.07;101239.63;4936834;29;20024;-96
2023/07/22 08:16:48;;;;;;;13.13;7.30;;;;;;;21.75;69.58;101243.97;4936830;29;20126;-95
2023/07/22 08:19:13;;;;;;;14.30;7.17;;;;;;;21.74;68.14;101242.34;4936797;29;20080;-94
2023/07/22 08:21:39;;;;;;;14.60;6.93;;;;;;;21.85;67.92;101238.19;4937085;29;20063;-95
2023/07/22 08:24:04;;;;;;;14.00;7.80;;;;;;;21.87;66.94;101235.94;4936476;29;20035;-95
2023/07/22 08:26:30;;;;;;;13.43;7.45;;;;;;;22.08;67.69;101225.09;4936291;29;20068;-95
2023/07/22 08:28:55;;;;;;;18.33;7.33;;;;;;;22.31;65.51;101229.50;4935704;29;20024;-95
2023/07/22 08:31:21;;;;;;;12.50;7.20;;;;;;;22.29;65.96;101248.13;4937467;29;20024;-95
2023/07/22 08:33:46;;;;;;;11.77;6.57;;;;;;;21.78;65.93;101246.03;4936796;29;20035;-95
2023/07/22 08:36:12;;;;;;;11.60;6.60;;;;;;;21.56;65.55;101249.75;4936363;29;20035;-96
2023/07/22 08:38:37;;;;;;;12.93;6.73;;;;;;;21.39;66.55;101236.91;4935368;29;20031;-96
2023/07/22 08:41:02;;;;;;;11.30;6.22;;;;;;;21.58;67.15;101245.56;4937328;29;20024;-95
2023/07/22 08:43:29;;;;;;;13.60;6.40;;;;;;;21.93;67.38;101245.53;4936097;29;20076;-96
2023/07/22 08:45:58;;;;;;;9.60;6.28;;;;;;;21.88;67.00;101243.00;4934543;29;20031;-95
2023/07/22 08:48:26;;;;;;;14.38;6.68;;;;;;;22.01;65.24;101245.84;4936069;29;20032;-96
2023/07/22 08:50:54;;;;;;;12.07;5.47;;;;;;;22.07;63.25;101241.81;4936818;29;20031;-96
2023/07/22 08:53:20;;;;;;;9.37;4.63;;;;;;;22.41;61.79;101241.97;4936979;29;20307;-96
2023/07/22 08:55:47;;;;;;;8.63;5.47;;;;;;;22.73;61.34;101250.69;4937987;29;20036;-96
2023/07/22 08:58:13;;;;;;;11.15;5.43;;;;;;;23.14;59.95;101246.38;4936972;29;20032;-95
2023/07/22 09:05:49;;;;;;;11.20;5.20;;;;;;;24.58;54.08;101244.22;5250597;23;20326;-94
2023/07/22 09:08:15;;;;;;;8.75;5.07;;;;;;;24.89;51.10;101242.84;4943601;29;20031;-95
2023/07/22 09:10:41;;;;;;;7.40;4.67;;;;;;;24.91;49.12;101251.53;4944216;29;20091;-95
2023/07/22 09:13:07;;;;;;;10.68;5.05;;;;;;;24.87;49.74;101232.22;4944910;29;20031;-95
2023/07/22 09:15:36;;;;;;;9.98;5.45;;;;;;;24.99;50.49;101244.31;4946206;29;20087;-95
2023/07/22 09:18:01;;;;;;;10.87;5.33;;;;;;;24.88;50.16;101253.00;4942044;29;20395;-95
2023/07/22 09:20:28;;;;;;;6.43;5.05;;;;;;;25.12;50.13;101258.78;4942408;29;20032;-96
2023/07/22 09:22:54;;;;;;;9.88;5.43;;;;;;;25.11;50.21;101238.78;4947344;29;20019;-96
2023/07/22 09:25:22;;;;;;;30.80;5.80;;;;;;;25.25;49.40;101239.19;4957695;29;20039;-96
2023/07/22 09:27:55;;;;;;;12.02;5.13;;;;;;;25.37;48.85;101240.31;4949594;29;20034;-95
2023/07/22 09:30:33;;;;;;;12.85;4.97;;;;;;;25.74;48.67;101248.38;4949549;29;20052;-96
2023/07/22 09:32:59;;;;;;;7.28;4.22;;;;;;;25.66;46.23;101243.84;4947920;29;20051;-96
2023/07/22 09:35:27;;;;;;;8.90;4.60;;;;;;;25.73;46.27;101240.50;4940699;29;20032;-96
2023/07/22 09:37:53;;;;;;;11.35;4.38;;;;;;;25.82;45.99;101244.66;4938828;29;20054;-96
2023/07/22 09:40:23;;;;;;;14.03;4.57;;;;;;;25.63;46.57;101226.16;4941928;29;20542;-96
2023/07/22 09:42:51;;;;;;;8.50;4.47;;;;;;;25.76;47.37;101239.78;4938725;29;20020;-95
2023/07/22 09:45:18;;;;;;;7.32;4.00;;;;;;;25.79;45.95;101239.09;4938752;28;20118;-96
2023/07/22 09:47:46;;;;;;;8.50;4.28;;;;;;;25.28;47.09;101226.75;4938105;29;20094;-95
2023/07/22 09:50:14;;;;;;;8.77;3.90;;;;;;;25.25;48.10;101225.47;4937439;28;20475;-96
2023/07/22 09:52:51;;;;;;;7.93;4.20;;;;;;;25.43;48.53;101233.44;4937571;29;20672;-95
2023/07/22 09:55:22;;;;;;;6.77;3.97;;;;;;;25.42;46.85;101231.84;4938361;29;20375;-95
2023/07/22 09:57:52;;;;;;;6.67;4.20;;;;;;;25.43;46.89;101227.16;4938474;29;20334;-94
2023/07/22 10:00:20;;;;;;;11.55;3.95;;;;;;;25.27;46.42;101208.69;4938788;29;20058;-95
2023/07/22 10:02:49;;;;;;;6.78;3.92;;;;;;;25.40;47.15;101228.63;4938977;29;20035;-94
2023/07/22 10:05:17;;;;;;;8.23;3.80;;;;;;;25.54;47.42;101226.31;4938671;29;20488;-95
2023/07/22 10:07:54;;;;;;;7.93;3.95;;;;;;;25.30;47.70;101220.91;4936464;29;20406;-95
2023/07/22 10:10:47;;;;;;;7.10;3.47;;;;;;;25.29;46.31;101233.03;4938101;29;20059;-94
2023/07/22 10:13:12;;;;;;;8.18;3.92;;;;;;;25.40;47.17;101237.66;4935277;29;20045;-95
2023/07/22 10:15:38;;;;;;;8.93;3.60;;;;;;;25.29;46.94;101236.53;4938377;29;20036;-95
2023/07/22 10:18:07;;;;;;;14.63;4.28;;;;;;;25.10;46.70;101232.53;4938549;29;20055;-96
2023/07/22 10:20:36;;;;;;;11.52;3.58;;;;;;;24.89;47.08;101221.72;4940365;29;20032;-95
2023/07/22 10:23:02;;;;;;;5.38;3.53;;;;;;;24.80;47.93;101221.84;4937443;28;20508;-95
2023/07/22 10:25:28;;;;;;;6.68;3.45;;;;;;;25.08;48.33;101228.53;4937372;29;20028;-95
2023/07/22 10:27:54;;;;;;;6.70;3.33;;;;;;;25.53;47.41;101226.66;4937959;29;20090;-94
2023/07/22 10:30:19;;;;;;;5.90;3.27;;;;;;;25.79;47.26;101225.38;4937385;29;20036;-94
2023/07/22 10:32:49;;;;;;;7.20;3.67;;;;;;;26.11;46.84;101226.19;4938432;29;20048;-96
2023/07/22 10:35:30;;;;;;;6.15;3.22;;;;;;;26.45;45.39;101231.28;4937809;29;20023;-95
2023/07/22 10:37:55;;;;;;;6.50;3.00;;;;;;;26.44;44.29;101219.53;4936887;28;20039;-96
2023/07/22 10:40:24;;;;;;;5.10;3.03;;;;;;;26.28;43.41;101229.75;4937696;29;20648;-95
2023/07/22 10:42:54;;;;;;;6.05;3.38;;;;;;;26.17;44.23;101232.22;4939131;29;20082;-94
2023/07/22 10:45:39;;;;;;;6.50;3.00;;;;;;;26.49;44.79;101231.38;4957793;29;20038;-95
2023/07/22 10:48:12;;;;;;;4.57;2.72;;;;;;;27.06;44.17;101221.63;4938730;29;20032;-96
2023/07/22 10:50:42;;;;;;;4.60;2.40;;;;;;;27.19;41.93;101233.28;4950581;29;20012;-95
2023/07/22 10:53:11;;;;;;;6.72;2.97;;;;;;;27.05;41.53;101208.25;4946927;29;20035;-95
2023/07/22 10:56:02;;;;;;;6.53;2.67;;;;;;;27.21;42.25;101205.41;4936789;29;20044;-95
2023/07/22 10:58:30;;;;;;;7.72;2.85;;;;;;;27.34;39.74;101206.06;4937689;29;20039;-96
2023/07/22 11:00:55;;;;;;;3.63;2.43;;;;;;;27.30;39.32;101206.00;4936983;29;20024;-96
2023/07/22 11:03:21;;;;;;;6.87;2.43;;;;;;;27.34;38.51;101200.56;4937155;29;20272;-94
2023/07/22 11:05:50;;;;;;;5.83;2.67;;;;;;;27.22;38.84;101212.50;4936904;29;20110;-96
2023/07/22 11:08:16;;;;;;;5.03;2.30;;;;;;;27.60;39.24;101227.41;4936795;29;20118;-96
2023/07/22 11:10:54;;;;;;;3.40;2.60;;;;;;;27.64;38.30;101220.00;4939115;29;20098;-94
2023/07/22 11:13:27;;;;;;;3.88;2.50;;;;;;;27.40;37.70;101206.56;4940080;29;20119;-94
2023/07/22 11:15:52;;;;;;;6.00;2.70;;;;;;;27.44;38.00;101210.97;4941728;29;20055;-94
2023/07/22 11:18:17;;;;;;;4.00;2.13;;;;;;;26.89;37.85;101216.56;4940403;29;20071;-95
2023/07/22 11:20:43;;;;;;;2.67;2.20;;;;;;;26.34;39.24;101203.56;4941372;29;20531;-96
2023/07/22 11:23:09;;;;;;;6.07;2.10;;;;;;;26.17;38.87;101201.22;4938300;29;20094;-95
2023/07/22 11:25:34;;;;;;;5.28;2.10;;;;;;;26.21;40.37;101200.13;4936701;29;20094;-96
2023/07/22 11:28:00;;;;;;;3.60;2.20;;;;;;;26.74;39.58;101196.22;4938841;29;20483;-96